createdAt,value
2022-10-23T00:00:41.059Z,25.77
2022-10-23T00:03:12.336Z,26.23
2022-10-23T00:05:47.580Z,26.30
2022-10-23T00:08:16.020Z,26.20
2022-10-23T00:10:45.792Z,24.25
2022-10-23T00:13:14.270Z,24.35
2022-10-23T00:15:44.057Z,31.17
2022-10-23T00:18:14.327Z,28.13
2022-10-23T00:20:42.784Z,27.63
2022-10-23T00:23:12.225Z,28.65
2022-10-23T00:25:53.150Z,30.27
2022-10-23T00:28:21.913Z,31.42
2022-10-23T00:30:50.303Z,35.15
2022-10-23T00:33:20.669Z,29.27
2022-10-23T00:35:49.112Z,32.35
2022-10-23T00:38:20.660Z,32.13
2022-10-23T00:43:28.398Z,37.33
2022-10-23T00:45:58.187Z,27.73
2022-10-23T00:48:30.659Z,41.33
2022-10-23T00:50:59.610Z,31.42
2022-10-23T00:53:28.716Z,29.65
2022-10-23T00:56:00.599Z,35.45
2022-10-23T00:58:29.956Z,32.90
2022-10-23T01:00:59.580Z,32.13
2022-10-23T01:03:31.127Z,29.10
2022-10-23T01:06:09.624Z,29.65
2022-10-23T01:08:47.437Z,36.65
2022-10-23T01:11:22.123Z,26.38
2022-10-23T01:13:59.106Z,29.75
2022-10-23T01:16:36.034Z,29.35
2022-10-23T01:19:15.535Z,27.25
2022-10-23T01:21:55.808Z,23.65
2022-10-23T01:24:48.149Z,22.58
2022-10-23T01:27:24.695Z,17.48
2022-10-23T01:30:04.127Z,20.30
2022-10-23T01:32:41.518Z,16.98
2022-10-23T01:35:16.126Z,20.75
2022-10-23T01:37:55.322Z,18.10
2022-10-23T01:40:31.110Z,15.75
2022-10-23T01:43:06.905Z,15.73
2022-10-23T01:45:41.416Z,16.63
2022-10-23T01:48:14.663Z,14.57
2022-10-23T01:50:47.331Z,15.88
2022-10-23T01:53:15.902Z,16.88
2022-10-23T01:55:46.299Z,16.45
2022-10-23T01:58:17.499Z,15.23
2022-10-23T02:00:48.627Z,16.02
2022-10-23T02:03:19.270Z,17.55
2022-10-23T02:05:47.653Z,17.45
2022-10-23T02:08:16.222Z,18.63
2022-10-23T02:10:53.021Z,19.80
2022-10-23T02:13:29.956Z,17.73
2022-10-23T02:16:08.050Z,19.77
2022-10-23T02:18:46.859Z,14.13
2022-10-23T02:21:20.319Z,16.48
2022-10-23T02:23:56.308Z,11.95
2022-10-23T02:26:31.040Z,13.80
2022-10-23T02:29:06.512Z,17.13
2022-10-23T02:31:35.667Z,13.57
2022-10-23T02:34:06.363Z,14.52
2022-10-23T02:36:35.066Z,18.17
2022-10-23T02:39:06.102Z,14.90
2022-10-23T02:41:43.180Z,10.60
2022-10-23T02:44:26.641Z,7.10
2022-10-23T02:47:05.931Z,6.70
2022-10-23T02:49:43.303Z,6.63
2022-10-23T02:52:19.049Z,8.57
2022-10-23T02:55:10.032Z,10.18
2022-10-23T02:57:46.222Z,15.48
2022-10-23T03:00:19.018Z,14.88
2022-10-23T03:02:51.537Z,19.67
2022-10-23T03:05:23.758Z,29.50
2022-10-23T03:07:54.046Z,25.77
2022-10-23T03:10:22.885Z,21.08
2022-10-23T03:12:51.362Z,18.50
2022-10-23T03:15:21.586Z,17.45
2022-10-23T03:17:50.038Z,20.30
2022-10-23T03:20:18.671Z,23.08
2022-10-23T03:22:47.290Z,22.40
2022-10-23T03:25:16.479Z,18.75
2022-10-23T03:27:44.781Z,26.85
2022-10-23T03:30:13.966Z,32.97
2022-10-23T03:32:44.458Z,30.52
2022-10-23T03:35:13.305Z,24.00
2022-10-23T03:37:42.396Z,23.48
2022-10-23T03:40:12.965Z,26.55
2022-10-23T03:42:41.504Z,29.05
2022-10-23T03:45:11.184Z,24.95
2022-10-23T03:47:41.617Z,19.38
2022-10-23T03:50:15.113Z,21.55
2022-10-23T03:52:43.711Z,17.05
2022-10-23T03:55:13.375Z,18.92
2022-10-23T03:57:41.751Z,23.20
2022-10-23T04:00:11.480Z,22.95
2022-10-23T04:02:39.997Z,21.45
2022-10-23T04:05:09.006Z,19.08
2022-10-23T04:07:39.333Z,18.30
2022-10-23T04:10:08.990Z,19.55
2022-10-23T04:12:37.317Z,21.48
2022-10-23T04:15:07.797Z,23.10
2022-10-23T04:17:36.445Z,28.15
2022-10-23T04:20:05.376Z,25.17
2022-10-23T04:22:34.460Z,19.42
2022-10-23T04:25:04.413Z,26.60
2022-10-23T04:27:34.664Z,16.20
2022-10-23T04:30:03.943Z,25.77
2022-10-23T04:32:32.781Z,23.75
2022-10-23T04:35:01.333Z,19.73
2022-10-23T04:37:30.084Z,26.77
2022-10-23T04:39:59.271Z,29.73
2022-10-23T04:42:29.098Z,24.95
2022-10-23T04:44:57.576Z,27.15
2022-10-23T04:47:26.564Z,28.45
2022-10-23T04:49:54.926Z,22.63
2022-10-23T04:52:23.269Z,36.97
2022-10-23T04:54:51.607Z,28.10
2022-10-23T04:57:19.932Z,36.28
2022-10-23T04:59:50.464Z,23.40
2022-10-23T05:02:18.983Z,27.63
2022-10-23T05:04:47.433Z,29.65
2022-10-23T05:07:16.015Z,28.52
2022-10-23T05:09:44.560Z,32.17
2022-10-23T05:12:12.951Z,27.05
2022-10-23T05:14:41.715Z,21.45
2022-10-23T05:17:25.614Z,30.05
2022-10-23T05:19:56.502Z,25.67
2022-10-23T05:22:28.906Z,26.08
2022-10-23T05:24:57.979Z,22.10
2022-10-23T05:27:26.647Z,30.08
2022-10-23T05:29:55.275Z,26.27
2022-10-23T05:32:27.441Z,24.33
2022-10-23T05:34:56.663Z,28.13
2022-10-23T05:37:25.401Z,24.40
2022-10-23T05:39:53.902Z,28.52
2022-10-23T05:42:22.272Z,29.00
2022-10-23T05:44:50.719Z,30.48
2022-10-23T05:47:19.456Z,30.92
2022-10-23T05:49:49.577Z,20.45
2022-10-23T05:52:20.032Z,31.92
2022-10-23T05:54:48.755Z,31.92
2022-10-23T05:59:50.724Z,29.88
2022-10-23T06:02:19.119Z,29.50
2022-10-23T06:04:49.822Z,28.88
2022-10-23T06:07:18.556Z,29.00
2022-10-23T06:09:47.201Z,36.47
2022-10-23T06:12:15.721Z,28.88
2022-10-23T06:14:44.277Z,31.27
2022-10-23T06:17:13.434Z,28.13
2022-10-23T06:19:41.984Z,30.77
2022-10-23T06:22:11.896Z,29.75
2022-10-23T06:24:41.946Z,31.92
2022-10-23T06:27:28.898Z,35.58
2022-10-23T06:29:57.648Z,20.45
2022-10-23T06:32:26.634Z,32.80
2022-10-23T06:34:55.623Z,30.35
2022-10-23T06:37:26.213Z,23.17
2022-10-23T06:39:54.692Z,24.75
2022-10-23T06:42:23.372Z,22.92
2022-10-23T06:44:51.812Z,21.67
2022-10-23T06:47:20.858Z,30.02
2022-10-23T06:49:49.845Z,31.25
2022-10-23T06:52:41.745Z,28.48
2022-10-23T06:55:09.928Z,21.95
2022-10-23T06:57:39.670Z,25.40
2022-10-23T07:00:09.962Z,26.88
2022-10-23T07:02:38.649Z,21.02
2022-10-23T07:05:11.310Z,23.48
2022-10-23T07:07:42.189Z,28.30
2022-10-23T07:12:42.835Z,21.52
2022-10-23T07:15:11.634Z,27.75
2022-10-23T07:17:40.304Z,25.67
2022-10-23T07:20:09.793Z,25.38
2022-10-23T07:22:38.814Z,23.90
2022-10-23T07:25:08.663Z,21.25
2022-10-23T07:27:41.236Z,23.88
2022-10-23T07:30:11.205Z,21.75
2022-10-23T07:32:39.898Z,21.80
2022-10-23T07:35:09.694Z,23.67
2022-10-23T07:37:38.878Z,29.70
2022-10-23T07:40:09.173Z,17.02
2022-10-23T07:42:39.546Z,26.15
2022-10-23T07:45:09.476Z,26.77
2022-10-23T07:47:38.717Z,24.27
2022-10-23T07:50:09.147Z,21.70
2022-10-23T07:52:38.448Z,20.73
2022-10-23T07:55:07.596Z,22.80
2022-10-23T07:57:36.321Z,28.90
2022-10-23T08:00:07.698Z,28.35
2022-10-23T08:02:38.292Z,35.05
2022-10-23T08:05:07.795Z,24.20
2022-10-23T08:07:36.425Z,27.98
2022-10-23T08:10:05.378Z,28.55
2022-10-23T08:12:33.922Z,22.15
2022-10-23T08:15:02.362Z,23.58
2022-10-23T08:17:32.471Z,25.08
2022-10-23T08:20:01.027Z,23.67
2022-10-23T08:22:29.608Z,25.05
2022-10-23T08:24:58.202Z,26.92
2022-10-23T08:27:33.224Z,20.90
2022-10-23T08:30:01.709Z,24.17
2022-10-23T08:32:33.167Z,27.83
2022-10-23T08:35:01.789Z,24.25
2022-10-23T08:37:30.027Z,26.58
2022-10-23T08:39:58.360Z,28.38
2022-10-23T08:42:29.759Z,34.35
2022-10-23T08:45:06.820Z,30.60
2022-10-23T08:47:42.014Z,24.75
2022-10-23T08:50:16.324Z,26.73
2022-10-23T08:52:52.431Z,25.70
2022-10-23T08:55:27.869Z,21.00
2022-10-23T08:58:03.341Z,24.35
2022-10-23T09:00:32.156Z,25.77
2022-10-23T09:03:04.446Z,19.10
2022-10-23T09:05:38.486Z,25.67
2022-10-23T09:08:27.115Z,22.40
2022-10-23T09:11:04.906Z,25.30
2022-10-23T09:13:58.693Z,31.85
2022-10-23T09:16:42.104Z,24.67
2022-10-23T09:19:18.525Z,30.98
2022-10-23T09:21:51.023Z,36.88
2022-10-23T09:24:21.139Z,35.10
2022-10-23T09:26:52.240Z,34.97
2022-10-23T09:29:26.279Z,38.72
2022-10-23T09:31:57.036Z,37.35
2022-10-23T09:34:28.687Z,32.55
2022-10-23T09:36:59.270Z,30.80
2022-10-23T09:39:31.148Z,46.47
2022-10-23T09:42:02.540Z,48.20
2022-10-23T09:44:33.103Z,30.00
2022-10-23T09:47:11.449Z,28.30
2022-10-23T09:49:48.714Z,32.80
2022-10-23T09:52:26.185Z,36.20
2022-10-23T09:54:58.665Z,35.15
2022-10-23T09:57:32.938Z,41.15
2022-10-23T10:00:06.049Z,37.83
2022-10-23T10:02:36.964Z,40.05
2022-10-23T10:05:25.454Z,43.70
2022-10-23T10:08:17.384Z,37.47
2022-10-23T10:10:49.456Z,42.72
2022-10-23T10:13:34.338Z,48.92
2022-10-23T10:16:13.976Z,32.33
2022-10-23T10:18:49.484Z,40.67
2022-10-23T10:21:26.728Z,38.15
2022-10-23T10:24:02.434Z,35.38
2022-10-23T10:26:40.137Z,33.58
2022-10-23T10:29:25.872Z,35.45
2022-10-23T10:32:06.517Z,34.63
2022-10-23T10:34:44.530Z,37.42
2022-10-23T10:37:27.817Z,29.50
2022-10-23T10:40:03.632Z,34.70
2022-10-23T10:42:47.817Z,26.40
2022-10-23T10:45:27.778Z,30.65
2022-10-23T10:48:11.573Z,37.92
2022-10-23T10:50:48.375Z,33.95
2022-10-23T10:53:34.489Z,36.58
2022-10-23T10:56:07.055Z,27.90
2022-10-23T10:58:41.631Z,39.35
2022-10-23T11:01:19.117Z,33.28
2022-10-23T11:03:54.454Z,30.80
2022-10-23T11:06:28.288Z,35.88
2022-10-23T11:09:19.282Z,38.17
2022-10-23T11:11:50.851Z,31.90
2022-10-23T11:14:23.905Z,29.40
2022-10-23T11:16:54.846Z,44.20
2022-10-23T11:19:28.281Z,34.38
2022-10-23T11:22:01.796Z,30.92
2022-10-23T11:24:58.903Z,31.42
2022-10-23T11:27:48.889Z,34.67
2022-10-23T11:30:26.254Z,32.47
2022-10-23T11:33:31.203Z,27.77
2022-10-23T11:36:08.537Z,24.92
2022-10-23T11:38:40.398Z,25.63
2022-10-23T11:41:25.303Z,23.35
2022-10-23T11:43:57.947Z,21.92
2022-10-23T11:46:33.051Z,18.90
2022-10-23T11:49:03.365Z,24.25
2022-10-23T11:51:40.742Z,18.17
2022-10-23T11:54:27.463Z,22.30
2022-10-23T11:57:16.023Z,21.38
2022-10-23T12:00:03.850Z,18.80
2022-10-23T12:02:37.724Z,18.52
2022-10-23T12:05:32.160Z,23.02
2022-10-23T12:08:21.759Z,14.63
2022-10-23T12:10:53.450Z,11.02
2022-10-23T12:13:44.222Z,9.38
2022-10-23T12:16:12.675Z,8.50
2022-10-23T12:18:54.826Z,9.88
2022-10-23T12:21:28.689Z,9.30
2022-10-23T12:24:39.449Z,11.20
2022-10-23T12:27:20.239Z,9.50
2022-10-23T12:30:03.097Z,11.15
2022-10-23T12:32:52.796Z,7.28
2022-10-23T12:35:40.379Z,7.80
2022-10-23T12:38:16.688Z,10.05
2022-10-23T12:40:47.789Z,9.00
2022-10-23T12:43:28.463Z,9.88
2022-10-23T12:46:09.201Z,14.15
2022-10-23T12:48:37.603Z,13.88
2022-10-23T12:51:06.206Z,10.93
2022-10-23T12:53:35.358Z,12.20
2022-10-23T12:56:06.877Z,4.53
2022-10-23T12:58:37.626Z,13.30
2022-10-23T13:01:09.355Z,10.63
2022-10-23T13:03:40.221Z,14.93
2022-10-23T13:06:17.503Z,9.05
2022-10-23T13:08:49.175Z,9.43
2022-10-23T13:11:21.524Z,11.77
2022-10-23T13:13:52.488Z,9.32
2022-10-23T13:16:25.447Z,8.60
2022-10-23T13:18:58.104Z,11.98
2022-10-23T13:21:29.945Z,13.18
2022-10-23T13:23:58.681Z,16.30
2022-10-23T13:26:34.472Z,14.13
2022-10-23T13:29:09.446Z,12.35
2022-10-23T13:31:40.036Z,8.23
2022-10-23T13:34:19.546Z,12.85
2022-10-23T13:36:58.049Z,11.55
2022-10-23T13:39:30.106Z,11.52
2022-10-23T13:42:02.357Z,12.43
2022-10-23T13:44:30.963Z,11.15
2022-10-23T13:47:00.807Z,13.48
2022-10-23T13:49:29.504Z,11.63
2022-10-23T13:51:58.346Z,11.93
2022-10-23T13:56:58.418Z,11.57
2022-10-23T13:59:26.874Z,10.52
2022-10-23T14:01:55.359Z,15.20
2022-10-23T14:04:25.437Z,11.85
2022-10-23T14:06:58.743Z,11.00
2022-10-23T14:09:27.594Z,11.43
2022-10-23T14:11:56.378Z,12.32
2022-10-23T14:14:24.689Z,7.85
2022-10-23T14:16:53.638Z,9.02
2022-10-23T14:19:22.285Z,12.10
2022-10-23T14:21:52.677Z,12.90
2022-10-23T14:24:21.272Z,14.23
2022-10-23T14:26:50.220Z,14.60
2022-10-23T14:29:23.078Z,10.85
2022-10-23T14:31:53.212Z,11.30
2022-10-23T14:34:21.883Z,8.98
2022-10-23T14:37:04.055Z,10.38
2022-10-23T14:39:36.858Z,7.95
2022-10-23T14:42:05.471Z,13.00
2022-10-23T14:44:33.753Z,10.23
2022-10-23T14:47:03.671Z,11.07
2022-10-23T14:49:33.861Z,14.05
2022-10-23T14:52:03.899Z,9.43
2022-10-23T14:54:34.985Z,10.05
2022-10-23T14:57:04.575Z,11.65
2022-10-23T14:59:33.186Z,13.20
2022-10-23T15:02:01.552Z,9.38
2022-10-23T15:04:29.948Z,10.32
2022-10-23T15:06:58.776Z,8.70
2022-10-23T15:09:29.580Z,11.00
2022-10-23T15:11:58.084Z,13.25
2022-10-23T15:14:26.407Z,11.68
2022-10-23T15:16:55.032Z,9.60
2022-10-23T15:19:23.388Z,11.15
2022-10-23T15:21:52.695Z,9.05
2022-10-23T15:24:22.663Z,11.50
2022-10-23T15:26:53.137Z,9.90
2022-10-23T15:29:23.302Z,10.30
2022-10-23T15:31:59.030Z,12.93
2022-10-23T15:34:29.355Z,11.70
2022-10-23T15:36:59.317Z,8.45
2022-10-23T15:39:33.974Z,9.55
2022-10-23T15:42:06.045Z,9.05
2022-10-23T15:44:37.795Z,11.73
2022-10-23T15:47:06.552Z,10.70
2022-10-23T15:49:35.465Z,11.27
2022-10-23T15:52:04.581Z,11.02
2022-10-23T15:54:33.420Z,12.35
2022-10-23T15:57:06.122Z,11.93
2022-10-23T15:59:35.749Z,13.77
2022-10-23T16:02:04.729Z,13.50
2022-10-23T16:04:33.504Z,14.32
2022-10-23T16:07:01.833Z,13.52
2022-10-23T16:09:31.174Z,12.88
2022-10-23T16:11:59.858Z,11.70
2022-10-23T16:14:29.967Z,15.55
2022-10-23T16:16:58.699Z,15.70
2022-10-23T16:19:27.423Z,15.07
2022-10-23T16:21:57.423Z,14.65
2022-10-23T16:24:26.209Z,18.08
2022-10-23T16:26:56.676Z,16.98
2022-10-23T16:29:26.347Z,12.15
2022-10-23T16:31:56.858Z,17.35
2022-10-23T16:34:25.591Z,18.65
2022-10-23T16:36:54.455Z,20.17
2022-10-23T16:39:23.909Z,23.65
2022-10-23T16:41:52.543Z,22.90
2022-10-23T16:44:21.017Z,23.65
2022-10-23T16:46:49.322Z,22.67
2022-10-23T16:49:19.861Z,18.27
2022-10-23T16:51:48.566Z,17.27
2022-10-23T16:54:18.208Z,21.23
2022-10-23T16:56:48.354Z,26.55
2022-10-23T16:59:18.100Z,22.02
2022-10-23T17:01:56.622Z,22.08
2022-10-23T17:04:27.514Z,23.77
2022-10-23T17:06:56.128Z,19.88
2022-10-23T17:09:29.894Z,21.85
2022-10-23T17:11:58.872Z,15.77
2022-10-23T17:14:29.535Z,19.38
2022-10-23T17:17:01.306Z,28.65
2022-10-23T17:19:44.682Z,28.08
2022-10-23T17:22:14.321Z,26.17
2022-10-23T17:24:47.465Z,22.60
2022-10-23T17:27:18.773Z,23.15
2022-10-23T17:29:48.323Z,21.45
2022-10-23T17:32:17.228Z,23.45
2022-10-23T17:34:48.437Z,20.08
2022-10-23T17:37:17.500Z,29.35
2022-10-23T17:39:45.883Z,23.33
2022-10-23T17:42:19.641Z,39.17
2022-10-23T17:44:48.215Z,24.42
2022-10-23T17:47:17.022Z,50.83
2022-10-23T17:49:47.658Z,26.58
2022-10-23T17:52:17.099Z,37.70
2022-10-23T17:54:45.590Z,23.58
2022-10-23T17:57:16.760Z,31.42
2022-10-23T17:59:45.762Z,28.98
2022-10-23T18:02:14.839Z,41.47
2022-10-23T18:04:43.989Z,19.90
2022-10-23T18:07:14.830Z,29.08
2022-10-23T18:09:43.948Z,21.42
2022-10-23T18:12:14.602Z,26.58
2022-10-23T18:14:44.281Z,27.73
2022-10-23T18:17:20.803Z,23.02
2022-10-23T18:19:52.363Z,18.67
2022-10-23T18:22:32.387Z,18.33
2022-10-23T18:25:01.559Z,24.75
2022-10-23T18:27:31.338Z,41.88
2022-10-23T18:30:00.596Z,37.17
2022-10-23T18:32:30.399Z,48.85
2022-10-23T18:34:58.977Z,37.05
2022-10-23T18:37:31.745Z,42.55
2022-10-23T18:40:01.766Z,23.55
2022-10-23T18:42:30.840Z,28.70
2022-10-23T18:45:02.400Z,25.33
2022-10-23T18:47:32.084Z,21.17
2022-10-23T18:50:01.724Z,26.17
2022-10-23T18:52:32.469Z,42.40
2022-10-23T18:55:00.984Z,32.40
2022-10-23T18:57:29.542Z,30.60
2022-10-23T18:59:59.003Z,32.42
2022-10-23T19:02:33.667Z,32.15
2022-10-23T19:05:02.855Z,23.30
2022-10-23T19:07:50.149Z,26.92
2022-10-23T19:10:20.788Z,28.58
2022-10-23T19:12:51.472Z,30.23
2022-10-23T19:15:19.906Z,28.30
2022-10-23T19:17:54.688Z,34.38
2022-10-23T19:23:18.388Z,27.73
2022-10-23T19:25:48.702Z,39.58
2022-10-23T19:28:17.822Z,38.58
2022-10-23T19:30:47.637Z,38.85
2022-10-23T19:33:20.129Z,36.35
2022-10-23T19:35:54.653Z,33.70
2022-10-23T19:38:25.675Z,38.17
2022-10-23T19:41:01.357Z,35.78
2022-10-23T19:43:30.086Z,31.60
2022-10-23T19:46:06.350Z,32.08
2022-10-23T19:48:38.156Z,30.67
2022-10-23T19:51:09.460Z,27.85
2022-10-23T19:53:40.908Z,29.58
2022-10-23T19:56:10.702Z,27.42
2022-10-23T19:58:42.043Z,26.67
2022-10-23T20:01:13.018Z,33.65
2022-10-23T20:03:43.114Z,28.63
2022-10-23T20:06:13.291Z,28.95
2022-10-23T20:08:43.681Z,31.10
2022-10-23T20:11:20.396Z,26.38
2022-10-23T20:13:49.907Z,28.80
2022-10-23T20:16:23.118Z,31.55
2022-10-23T20:18:51.773Z,31.42
2022-10-23T20:21:22.411Z,28.33
2022-10-23T20:23:54.098Z,26.67
2022-10-23T20:26:23.011Z,28.70
2022-10-23T20:28:54.667Z,30.23
2022-10-23T20:31:25.905Z,33.35
2022-10-23T20:33:56.248Z,33.70
2022-10-23T20:36:28.779Z,26.52
2022-10-23T20:39:02.611Z,20.05
2022-10-23T20:41:33.419Z,25.48
2022-10-23T20:44:05.143Z,24.13
2022-10-23T20:46:35.388Z,25.70
2022-10-23T20:49:04.109Z,24.33
2022-10-23T20:51:32.866Z,24.48
2022-10-23T20:54:04.163Z,26.88
2022-10-23T20:56:34.606Z,22.88
2022-10-23T20:59:05.205Z,24.00
2022-10-23T21:01:34.804Z,28.83
2022-10-23T21:04:05.515Z,24.55
2022-10-23T21:06:51.553Z,20.05
2022-10-23T21:09:26.023Z,25.20
2022-10-23T21:11:57.233Z,24.50
2022-10-23T21:14:25.730Z,31.67
2022-10-23T21:16:57.334Z,28.35
2022-10-23T21:19:25.969Z,25.20
2022-10-23T21:21:57.048Z,27.08
2022-10-23T21:24:28.086Z,30.88
2022-10-23T21:26:56.908Z,27.17
2022-10-23T21:29:33.989Z,24.30
2022-10-23T21:32:03.005Z,33.80
2022-10-23T21:34:33.005Z,27.55
2022-10-23T21:37:17.884Z,27.52
2022-10-23T21:39:49.071Z,28.58
2022-10-23T21:42:17.954Z,29.00
2022-10-23T21:44:47.569Z,24.67
2022-10-23T21:47:17.560Z,19.10
2022-10-23T21:49:46.572Z,29.40
2022-10-23T21:52:17.618Z,24.10
2022-10-23T21:54:53.495Z,22.05
2022-10-23T21:57:22.271Z,27.75
2022-10-23T21:59:50.692Z,32.67
2022-10-23T22:02:20.026Z,26.20
2022-10-23T22:04:48.611Z,26.85
2022-10-23T22:07:17.355Z,30.58
2022-10-23T22:09:46.066Z,30.08
2022-10-23T22:12:16.954Z,24.88
2022-10-23T22:14:46.786Z,27.92
2022-10-23T22:17:15.385Z,37.70
2022-10-23T22:19:44.168Z,32.90
2022-10-23T22:22:13.796Z,33.65
2022-10-23T22:24:42.500Z,27.08
2022-10-23T22:27:11.320Z,27.63
2022-10-23T22:29:41.744Z,25.23
2022-10-23T22:32:10.404Z,26.63
2022-10-23T22:34:52.258Z,23.02
2022-10-23T22:37:22.365Z,35.35
2022-10-23T22:40:15.111Z,25.30
2022-10-23T22:42:45.317Z,27.67
2022-10-23T22:45:16.944Z,24.63
2022-10-23T22:47:47.866Z,26.13
2022-10-23T22:50:17.341Z,26.60
2022-10-23T22:52:47.054Z,25.00
2022-10-23T22:55:16.568Z,31.95
2022-10-23T22:57:45.456Z,31.95
2022-10-23T23:00:17.416Z,27.95
2022-10-23T23:02:46.068Z,28.70
2022-10-23T23:05:20.513Z,29.65
2022-10-23T23:07:48.971Z,23.52
2022-10-23T23:10:18.333Z,24.27
2022-10-23T23:12:46.693Z,30.25
2022-10-23T23:15:16.783Z,32.80
2022-10-23T23:17:47.836Z,23.92
2022-10-23T23:20:16.245Z,21.95
2022-10-23T23:22:45.432Z,26.77
2022-10-23T23:25:16.175Z,27.27
2022-10-23T23:27:44.993Z,34.10
2022-10-23T23:30:16.607Z,23.48
2022-10-23T23:32:45.504Z,29.00
2022-10-23T23:35:14.709Z,32.20
2022-10-23T23:37:43.010Z,27.92
2022-10-23T23:40:14.143Z,27.33
2022-10-23T23:42:42.906Z,31.52
2022-10-23T23:45:14.890Z,28.98
2022-10-23T23:47:45.794Z,30.90
2022-10-23T23:50:15.029Z,36.65
2022-10-23T23:52:45.124Z,27.00
2022-10-23T23:55:14.392Z,30.38
2022-10-23T23:57:43.466Z,30.50
